createdAt,value
2018-12-17T00:01:06.010Z,81.40
2018-12-17T00:03:35.162Z,81.01
2018-12-17T00:06:04.326Z,81.12
2018-12-17T00:08:33.709Z,81.17
2018-12-17T00:11:02.858Z,81.48
2018-12-17T00:13:32.024Z,81.51
2018-12-17T00:16:01.387Z,81.58
2018-12-17T00:18:30.547Z,81.77
2018-12-17T00:20:59.849Z,81.84
2018-12-17T00:23:28.948Z,81.84
2018-12-17T00:25:58.122Z,81.73
2018-12-17T00:28:27.314Z,81.96
2018-12-17T00:30:56.692Z,82.06
2018-12-17T00:33:25.532Z,82.11
2018-12-17T00:35:54.535Z,82.17
2018-12-17T00:38:24.861Z,82.17
2018-12-17T00:40:54.142Z,82.13
2018-12-17T00:43:23.464Z,82.09
2018-12-17T00:45:52.803Z,81.92
2018-12-17T00:48:22.140Z,82.52
2018-12-17T00:50:51.211Z,81.91
2018-12-17T00:53:20.527Z,82.23
2018-12-17T00:55:49.819Z,82.14
2018-12-17T00:58:18.746Z,82.13
2018-12-17T01:00:48.135Z,82.17
2018-12-17T01:03:17.443Z,82.00
2018-12-17T01:05:46.479Z,81.77
2018-12-17T01:08:15.752Z,81.75
2018-12-17T01:10:44.776Z,81.51
2018-12-17T01:13:13.833Z,81.28
2018-12-17T01:15:43.420Z,81.01
2018-12-17T01:18:12.734Z,80.91
2018-12-17T01:20:41.658Z,80.88
2018-12-17T01:23:10.861Z,80.96
2018-12-17T01:25:40.000Z,81.09
2018-12-17T01:28:09.108Z,80.96
2018-12-17T01:30:38.354Z,81.00
2018-12-17T01:33:07.470Z,80.96
2018-12-17T01:35:36.989Z,80.97
2018-12-17T01:38:06.427Z,81.13
2018-12-17T01:40:35.908Z,81.36
2018-12-17T01:43:04.753Z,81.60
2018-12-17T01:45:34.079Z,81.58
2018-12-17T01:48:04.105Z,81.72
2018-12-17T01:50:33.207Z,81.74
2018-12-17T01:53:02.345Z,81.55
2018-12-17T01:55:31.230Z,81.48
2018-12-17T01:58:00.357Z,81.36
2018-12-17T02:00:29.672Z,81.33
2018-12-17T02:02:58.892Z,81.09
2018-12-17T02:05:28.210Z,80.83
2018-12-17T02:07:57.394Z,81.10
2018-12-17T02:10:26.628Z,81.14
2018-12-17T02:12:55.797Z,81.03
2018-12-17T02:15:24.940Z,81.39
2018-12-17T02:17:53.972Z,81.54
2018-12-17T02:20:23.019Z,81.18
2018-12-17T02:22:52.428Z,81.08
2018-12-17T02:25:22.773Z,80.65
2018-12-17T02:27:51.567Z,80.69
2018-12-17T02:30:20.961Z,80.52
2018-12-17T02:32:49.805Z,80.77
2018-12-17T02:35:18.925Z,80.65
2018-12-17T02:37:48.310Z,80.63
2018-12-17T02:40:17.517Z,80.60
2018-12-17T02:42:46.725Z,80.29
2018-12-17T02:45:16.064Z,80.48
2018-12-17T02:47:45.337Z,80.51
2018-12-17T02:50:14.794Z,80.71
2018-12-17T02:52:43.841Z,80.47
2018-12-17T02:55:12.930Z,80.76
2018-12-17T02:57:41.941Z,81.00
2018-12-17T03:00:11.540Z,81.33
2018-12-17T03:02:40.521Z,81.47
2018-12-17T03:05:09.828Z,81.05
2018-12-17T03:07:39.036Z,81.15
2018-12-17T03:10:08.020Z,80.89
2018-12-17T03:12:37.155Z,80.74
2018-12-17T03:15:07.124Z,80.56
2018-12-17T03:17:36.199Z,80.47
2018-12-17T03:20:05.628Z,80.43
2018-12-17T03:22:35.228Z,80.88
2018-12-17T03:25:04.330Z,80.58
2018-12-17T03:27:33.296Z,80.76
2018-12-17T03:30:02.507Z,80.85
2018-12-17T03:32:31.388Z,80.71
2018-12-17T03:35:00.332Z,80.73
2018-12-17T03:37:29.554Z,81.00
2018-12-17T03:39:58.777Z,80.77
2018-12-17T03:42:27.712Z,80.76
2018-12-17T03:44:56.871Z,80.98
2018-12-17T03:47:25.845Z,80.75
2018-12-17T03:49:54.867Z,80.67
2018-12-17T03:52:29.091Z,80.86
2018-12-17T03:54:57.959Z,81.06
2018-12-17T03:57:27.067Z,81.01
2018-12-17T03:59:56.442Z,80.84
2018-12-17T04:02:25.572Z,81.27
2018-12-17T04:04:55.059Z,81.38
2018-12-17T04:07:24.130Z,81.42
2018-12-17T04:09:53.547Z,81.15
2018-12-17T04:12:22.752Z,81.20
2018-12-17T04:14:52.267Z,80.88
2018-12-17T04:17:21.309Z,80.80
2018-12-17T04:19:50.366Z,80.73
2018-12-17T04:22:19.539Z,80.64
2018-12-17T04:24:48.736Z,80.58
2018-12-17T04:27:17.861Z,80.61
2018-12-17T04:29:47.053Z,80.78
2018-12-17T04:32:16.215Z,80.58
2018-12-17T04:34:45.378Z,80.52
2018-12-17T04:37:14.515Z,80.44
2018-12-17T04:39:43.510Z,80.45
2018-12-17T04:42:12.882Z,80.32
2018-12-17T04:44:42.570Z,80.21
2018-12-17T04:47:11.858Z,80.28
2018-12-17T04:49:40.934Z,80.27
2018-12-17T04:52:10.153Z,80.16
2018-12-17T04:54:39.320Z,79.92
2018-12-17T04:57:08.183Z,79.90
2018-12-17T04:59:37.707Z,79.94
2018-12-17T05:02:06.708Z,79.54
2018-12-17T05:04:35.789Z,79.62
2018-12-17T05:07:05.197Z,79.42
2018-12-17T05:09:34.193Z,79.54
2018-12-17T05:12:03.416Z,79.72
2018-12-17T05:14:32.738Z,79.81
2018-12-17T05:17:01.679Z,80.14
2018-12-17T05:19:30.717Z,80.08
2018-12-17T05:21:59.933Z,80.12
2018-12-17T05:24:28.979Z,80.07
2018-12-17T05:26:57.965Z,79.89
2018-12-17T05:29:27.004Z,80.08
2018-12-17T05:31:56.073Z,79.82
2018-12-17T05:34:25.067Z,79.92
2018-12-17T05:36:54.146Z,79.80
2018-12-17T05:39:23.392Z,79.82
2018-12-17T05:41:52.579Z,79.87
2018-12-17T05:44:22.534Z,79.84
2018-12-17T05:46:51.640Z,79.98
2018-12-17T05:49:20.371Z,80.07
2018-12-17T05:51:49.263Z,79.98
2018-12-17T05:54:18.343Z,80.21
2018-12-17T05:56:47.268Z,80.07
2018-12-17T05:59:16.507Z,80.12
2018-12-17T06:01:45.857Z,79.97
2018-12-17T06:04:14.612Z,80.32
2018-12-17T06:06:44.041Z,80.14
2018-12-17T06:09:14.078Z,80.10
2018-12-17T06:11:43.287Z,80.24
2018-12-17T06:14:12.354Z,80.23
2018-12-17T06:16:41.128Z,80.23
2018-12-17T06:19:10.399Z,80.20
2018-12-17T06:21:39.338Z,80.18
2018-12-17T06:24:08.476Z,80.30
2018-12-17T06:26:37.638Z,80.52
2018-12-17T06:29:06.878Z,80.21
2018-12-17T06:31:35.974Z,80.11
2018-12-17T06:34:05.129Z,80.00
2018-12-17T06:36:34.397Z,80.10
2018-12-17T06:39:05.346Z,80.49
2018-12-17T06:41:34.263Z,80.57
2018-12-17T06:44:03.569Z,79.70
2018-12-17T06:46:32.994Z,80.09
2018-12-17T06:49:02.132Z,79.97
2018-12-17T06:51:31.651Z,80.05
2018-12-17T06:54:00.551Z,80.12
2018-12-17T06:56:29.631Z,79.87
2018-12-17T06:58:59.114Z,79.93
2018-12-17T07:01:28.212Z,80.14
2018-12-17T07:03:57.435Z,79.84
2018-12-17T07:06:26.615Z,79.58
2018-12-17T07:08:55.735Z,79.47
2018-12-17T07:11:25.035Z,79.66
2018-12-17T07:13:54.128Z,79.78
2018-12-17T07:16:23.283Z,79.69
2018-12-17T07:18:52.412Z,79.67
2018-12-17T07:21:21.609Z,79.78
2018-12-17T07:23:50.898Z,79.98
2018-12-17T07:26:19.699Z,79.67
2018-12-17T07:28:49.092Z,79.76
2018-12-17T07:31:18.095Z,79.54
2018-12-17T07:33:47.352Z,79.54
2018-12-17T07:36:17.187Z,79.45
2018-12-17T07:41:30.239Z,79.70
2018-12-17T07:43:59.637Z,79.56
2018-12-17T07:46:28.801Z,79.47
2018-12-17T07:48:58.721Z,79.66
2018-12-17T07:51:28.057Z,79.69
2018-12-17T07:53:56.995Z,79.87
2018-12-17T07:59:18.693Z,80.19
2018-12-17T08:01:47.616Z,80.10
2018-12-17T08:04:17.121Z,80.14
2018-12-17T08:06:46.506Z,80.14
2018-12-17T08:09:15.716Z,80.18
2018-12-17T08:11:45.191Z,80.23
2018-12-17T08:14:14.966Z,80.12
2018-12-17T08:16:44.199Z,80.00
2018-12-17T08:19:13.374Z,79.94
2018-12-17T08:21:42.965Z,80.11
2018-12-17T08:30:03.747Z,79.73
2018-12-17T08:32:28.965Z,79.62
2018-12-17T08:34:58.272Z,79.62
2018-12-17T08:37:27.653Z,79.61
2018-12-17T08:40:59.624Z,79.65
2018-12-17T08:43:28.869Z,79.89
2018-12-17T08:45:58.100Z,79.77
2018-12-17T08:48:27.476Z,79.91
2018-12-17T08:50:56.740Z,79.81
2018-12-17T08:53:26.284Z,80.08
2018-12-17T08:55:55.464Z,80.36
2018-12-17T08:58:24.913Z,80.30
2018-12-17T09:00:54.229Z,80.21
2018-12-17T09:03:23.560Z,80.15
2018-12-17T09:05:52.519Z,80.26
2018-12-17T09:08:21.515Z,80.51
2018-12-17T09:10:50.969Z,80.47
2018-12-17T09:13:20.114Z,80.36
2018-12-17T09:15:49.210Z,80.33
2018-12-17T09:18:18.485Z,80.29
2018-12-17T09:20:47.679Z,80.04
2018-12-17T09:23:16.742Z,80.05
2018-12-17T09:25:45.916Z,79.96
2018-12-17T09:28:15.334Z,80.17
2018-12-17T09:30:47.396Z,80.35
2018-12-17T09:33:16.762Z,80.21
2018-12-17T09:35:45.810Z,79.86
2018-12-17T09:38:15.272Z,80.04
2018-12-17T09:40:44.473Z,79.58
2018-12-17T09:43:13.840Z,79.97
2018-12-17T09:45:42.828Z,79.91
2018-12-17T09:48:11.946Z,79.72
2018-12-17T09:50:41.265Z,79.97
2018-12-17T09:53:10.721Z,79.74
2018-12-17T09:55:39.557Z,80.12
2018-12-17T09:58:08.996Z,79.89
2018-12-17T10:00:37.971Z,79.98
2018-12-17T10:03:06.987Z,79.92
2018-12-17T10:05:36.636Z,79.82
2018-12-17T10:08:06.149Z,79.73
2018-12-17T10:10:35.241Z,79.79
2018-12-17T10:13:04.693Z,79.75
2018-12-17T10:15:33.941Z,79.71
2018-12-17T10:18:02.954Z,79.61
2018-12-17T10:20:32.412Z,79.51
2018-12-17T10:23:01.464Z,79.55
2018-12-17T10:25:30.678Z,79.73
2018-12-17T10:28:00.089Z,79.81
2018-12-17T10:30:32.542Z,80.02
2018-12-17T10:33:00.194Z,80.01
2018-12-17T10:35:29.555Z,80.13
2018-12-17T10:37:58.482Z,80.14
2018-12-17T10:40:27.678Z,79.77
2018-12-17T10:42:57.080Z,79.69
2018-12-17T10:45:26.024Z,80.01
2018-12-17T10:47:55.088Z,79.88
2018-12-17T10:50:24.522Z,79.81
2018-12-17T10:52:53.797Z,80.10
2018-12-17T10:55:23.211Z,79.87
2018-12-17T10:57:52.396Z,80.26
2018-12-17T11:00:26.570Z,80.05
2018-12-17T11:02:58.309Z,79.86
2018-12-17T11:05:27.515Z,80.07
2018-12-17T11:07:56.803Z,80.25
2018-12-17T11:10:26.337Z,80.02
2018-12-17T11:12:55.575Z,80.05
2018-12-17T11:15:24.895Z,80.03
2018-12-17T11:17:54.246Z,80.11
2018-12-17T11:20:23.969Z,79.89
2018-12-17T11:22:53.248Z,79.67
2018-12-17T11:25:22.634Z,80.26
2018-12-17T11:27:51.760Z,80.16
2018-12-17T11:30:21.001Z,80.06
2018-12-17T11:32:49.981Z,79.88
2018-12-17T11:35:19.165Z,79.71
2018-12-17T11:37:48.547Z,79.71
2018-12-17T11:40:18.179Z,79.60
2018-12-17T11:42:47.144Z,79.94
2018-12-17T11:45:16.431Z,79.87
2018-12-17T11:47:45.586Z,80.08
2018-12-17T11:50:14.551Z,79.82
2018-12-17T11:52:43.866Z,79.71
2018-12-17T11:55:13.390Z,80.07
2018-12-17T11:57:53.568Z,79.85
2018-12-17T12:00:25.783Z,79.58
2018-12-17T12:02:59.097Z,79.54
2018-12-17T12:05:26.385Z,79.54
2018-12-17T12:07:55.697Z,79.70
2018-12-17T12:10:25.088Z,79.19
2018-12-17T12:12:54.342Z,79.09
2018-12-17T12:15:24.747Z,79.09
2018-12-17T12:17:53.734Z,79.26
2018-12-17T12:20:23.417Z,79.16
2018-12-17T12:22:52.729Z,79.28
2018-12-17T12:25:22.003Z,79.39
2018-12-17T12:27:51.333Z,79.45
2018-12-17T12:30:20.468Z,79.21
2018-12-17T12:32:49.491Z,79.14
2018-12-17T12:35:18.690Z,79.41
2018-12-17T12:37:47.912Z,79.24
2018-12-17T12:40:17.157Z,79.21
2018-12-17T12:42:51.681Z,79.45
2018-12-17T12:45:17.619Z,79.24
2018-12-17T12:47:47.144Z,79.37
2018-12-17T12:50:16.422Z,79.50
2018-12-17T12:52:45.621Z,79.72
2018-12-17T12:55:15.099Z,79.77
2018-12-17T12:57:44.267Z,79.70
2018-12-17T13:00:15.178Z,79.82
2018-12-17T13:02:44.560Z,79.81
2018-12-17T13:05:13.548Z,79.91
2018-12-17T13:07:42.647Z,79.80
2018-12-17T13:10:13.373Z,79.84
2018-12-17T13:12:42.771Z,79.74
2018-12-17T13:15:12.068Z,79.78
2018-12-17T13:17:41.215Z,79.88
2018-12-17T13:20:10.813Z,79.70
2018-12-17T13:22:40.216Z,79.99
2018-12-17T13:25:13.429Z,80.01
2018-12-17T13:27:42.868Z,80.04
2018-12-17T13:30:12.248Z,80.11
2018-12-17T13:32:41.414Z,80.42
2018-12-17T13:35:10.422Z,80.02
2018-12-17T13:37:39.277Z,80.28
2018-12-17T13:40:09.935Z,80.23
2018-12-17T13:42:39.129Z,80.33
2018-12-17T13:45:08.506Z,80.19
2018-12-17T13:47:38.385Z,80.42
2018-12-17T13:50:12.838Z,80.32
2018-12-17T13:52:47.208Z,80.08
2018-12-17T13:55:16.860Z,80.21
2018-12-17T13:57:46.115Z,80.15
2018-12-17T14:00:15.271Z,80.27
2018-12-17T14:02:44.917Z,80.13
2018-12-17T14:05:14.284Z,80.07
2018-12-17T14:07:43.695Z,79.91
2018-12-17T14:10:18.170Z,79.81
2018-12-17T14:12:47.520Z,79.69
2018-12-17T14:15:16.872Z,79.60
2018-12-17T14:17:48.805Z,79.79
2018-12-17T14:20:23.037Z,79.58
2018-12-17T14:22:52.343Z,79.59
2018-12-17T14:25:21.388Z,79.65
2018-12-17T14:27:50.663Z,79.48
2018-12-17T14:30:20.960Z,79.62
2018-12-17T14:32:50.203Z,79.55
2018-12-17T14:35:19.539Z,79.61
2018-12-17T14:37:53.788Z,79.80
2018-12-17T14:40:22.998Z,79.65
2018-12-17T14:42:52.183Z,79.56
2018-12-17T14:45:21.539Z,79.93
2018-12-17T14:47:50.904Z,79.84
2018-12-17T14:50:19.979Z,79.81
2018-12-17T14:52:49.838Z,80.05
2018-12-17T14:55:19.196Z,79.79
2018-12-17T14:57:48.321Z,79.88
2018-12-17T15:00:17.907Z,79.96
2018-12-17T15:02:47.402Z,79.97
2018-12-17T15:05:16.768Z,79.95
2018-12-17T15:07:46.112Z,79.87
2018-12-17T15:10:15.178Z,80.06
2018-12-17T15:12:44.539Z,79.93
2018-12-17T15:15:13.795Z,80.27
2018-12-17T15:17:42.838Z,79.92
2018-12-17T15:20:12.397Z,80.06
2018-12-17T15:22:42.006Z,79.93
2018-12-17T15:25:11.530Z,80.00
2018-12-17T15:27:40.592Z,79.93
2018-12-17T15:30:10.006Z,80.12
2018-12-17T15:32:39.219Z,80.17
2018-12-17T15:35:08.051Z,80.13
2018-12-17T15:37:37.614Z,80.01
2018-12-17T15:40:06.692Z,80.16
2018-12-17T15:42:40.729Z,80.32
2018-12-17T15:45:07.297Z,80.30
2018-12-17T15:47:36.553Z,80.52
2018-12-17T15:50:05.641Z,80.46
2018-12-17T15:52:35.042Z,80.53
2018-12-17T15:55:04.375Z,80.65
2018-12-17T15:57:33.224Z,80.60
2018-12-17T16:00:02.513Z,80.47
2018-12-17T16:02:32.010Z,80.44
2018-12-17T16:05:01.183Z,80.25
2018-12-17T16:07:30.747Z,80.32
2018-12-17T16:10:00.066Z,80.41
2018-12-17T16:12:29.194Z,80.46
2018-12-17T16:14:58.443Z,80.66
2018-12-17T16:17:27.287Z,80.45
2018-12-17T16:19:56.211Z,80.55
2018-12-17T16:22:26.152Z,80.48
2018-12-17T16:24:55.659Z,80.72
2018-12-17T16:27:25.215Z,80.31
2018-12-17T16:29:54.634Z,80.48
2018-12-17T16:32:23.917Z,80.72
2018-12-17T16:34:53.055Z,80.44
2018-12-17T16:37:22.210Z,80.71
2018-12-17T16:39:51.173Z,80.38
2018-12-17T16:42:20.217Z,80.59
2018-12-17T16:44:49.502Z,80.50
2018-12-17T16:47:18.566Z,80.58
2018-12-17T16:49:47.533Z,80.65
2018-12-17T16:52:16.868Z,80.54
2018-12-17T16:54:46.224Z,80.68
2018-12-17T16:57:15.230Z,80.63
2018-12-17T16:59:44.715Z,80.64
2018-12-17T17:02:14.040Z,80.49
2018-12-17T17:04:43.208Z,80.59
2018-12-17T17:07:12.806Z,80.84
2018-12-17T17:09:42.024Z,80.82
2018-12-17T17:12:10.861Z,80.65
2018-12-17T17:14:40.095Z,80.83
2018-12-17T17:17:09.143Z,80.88
2018-12-17T17:19:38.035Z,80.82
2018-12-17T17:22:07.222Z,80.98
2018-12-17T17:24:36.113Z,80.85
2018-12-17T17:27:05.397Z,80.70
2018-12-17T17:29:34.763Z,81.13
2018-12-17T17:32:11.268Z,81.17
2018-12-17T17:34:35.821Z,81.16
2018-12-17T17:37:05.136Z,80.89
2018-12-17T17:39:34.243Z,81.09
2018-12-17T17:42:03.375Z,80.86
2018-12-17T17:44:32.505Z,80.67
2018-12-17T17:47:01.553Z,80.66
2018-12-17T17:49:30.575Z,80.42
2018-12-17T17:51:59.553Z,80.26
2018-12-17T17:54:28.744Z,80.54
2018-12-17T17:56:58.322Z,80.66
2018-12-17T17:59:27.549Z,80.55
2018-12-17T18:01:56.930Z,80.52
2018-12-17T18:04:26.223Z,80.50
2018-12-17T18:06:55.814Z,80.80
2018-12-17T18:09:24.991Z,80.89
2018-12-17T18:11:54.420Z,80.83
2018-12-17T18:14:24.642Z,80.78
2018-12-17T18:16:53.529Z,80.71
2018-12-17T18:19:23.099Z,80.73
2018-12-17T18:21:52.485Z,80.69
2018-12-17T18:24:22.737Z,80.67
2018-12-17T18:26:51.965Z,80.71
2018-12-17T18:29:21.075Z,80.43
2018-12-17T18:31:50.207Z,80.35
2018-12-17T18:34:19.582Z,80.46
2018-12-17T18:36:48.668Z,80.44
2018-12-17T18:39:18.544Z,80.39
2018-12-17T18:41:47.895Z,80.24
2018-12-17T18:44:17.103Z,80.40
2018-12-17T18:46:46.453Z,80.29
2018-12-17T18:49:15.864Z,80.38
2018-12-17T18:51:45.061Z,80.26
2018-12-17T18:54:14.158Z,80.04
2018-12-17T18:56:43.397Z,80.21
2018-12-17T18:59:12.549Z,80.03
2018-12-17T19:01:41.795Z,80.14
2018-12-17T19:04:11.275Z,80.38
2018-12-17T19:06:40.610Z,80.20
2018-12-17T19:09:10.121Z,80.24
2018-12-17T19:11:39.499Z,79.92
2018-12-17T19:14:08.507Z,80.09
2018-12-17T19:16:37.685Z,80.09
2018-12-17T19:19:07.121Z,80.23
2018-12-17T19:21:36.151Z,80.35
2018-12-17T19:24:05.272Z,80.13
2018-12-17T19:26:34.650Z,80.02
2018-12-17T19:29:04.054Z,79.91
2018-12-17T19:31:34.687Z,79.88
2018-12-17T19:34:04.105Z,80.11
2018-12-17T19:36:33.379Z,79.59
2018-12-17T19:39:02.277Z,79.87
2018-12-17T19:41:31.819Z,79.88
2018-12-17T19:44:01.279Z,79.84
2018-12-17T19:46:30.180Z,79.89
2018-12-17T19:48:59.150Z,80.03
2018-12-17T19:51:28.430Z,79.96
2018-12-17T19:53:57.805Z,79.93
2018-12-17T19:56:26.737Z,79.98
2018-12-17T19:58:56.251Z,80.00
2018-12-17T20:01:25.310Z,79.87
2018-12-17T20:03:54.529Z,79.70
2018-12-17T20:06:24.726Z,79.81
2018-12-17T20:08:53.941Z,79.73
2018-12-17T20:11:23.441Z,79.85
2018-12-17T20:13:52.760Z,79.82
2018-12-17T20:16:21.921Z,79.99
2018-12-17T20:18:51.385Z,79.96
2018-12-17T20:21:21.077Z,79.77
2018-12-17T20:23:50.188Z,79.85
2018-12-17T20:26:19.496Z,79.91
2018-12-17T20:28:49.062Z,79.79
2018-12-17T20:31:18.194Z,79.62
2018-12-17T20:33:47.462Z,79.84
2018-12-17T20:36:16.719Z,79.93
2018-12-17T20:38:45.786Z,80.10
2018-12-17T20:41:15.280Z,80.04
2018-12-17T20:43:44.820Z,80.01
2018-12-17T20:46:14.342Z,80.12
2018-12-17T20:48:43.696Z,80.03
2018-12-17T20:51:13.090Z,79.98
2018-12-17T20:53:42.302Z,79.95
2018-12-17T20:56:11.611Z,79.87
2018-12-17T20:58:40.938Z,80.39
2018-12-17T21:01:10.280Z,80.09
2018-12-17T21:03:39.461Z,80.05
2018-12-17T21:06:08.895Z,80.38
2018-12-17T21:08:38.007Z,80.05
2018-12-17T21:11:07.187Z,80.29
2018-12-17T21:13:36.856Z,80.22
2018-12-17T21:16:05.998Z,80.28
2018-12-17T21:18:35.349Z,80.32
2018-12-17T21:21:04.688Z,80.10
2018-12-17T21:23:34.168Z,80.26
2018-12-17T21:26:03.474Z,80.11
2018-12-17T21:28:32.729Z,80.14
2018-12-17T21:31:01.801Z,80.18
2018-12-17T21:33:31.260Z,80.01
2018-12-17T21:36:00.719Z,80.01
2018-12-17T21:38:29.765Z,80.26
2018-12-17T21:40:58.989Z,80.29
2018-12-17T21:43:28.150Z,80.26
2018-12-17T21:45:57.477Z,80.05
2018-12-17T21:48:26.857Z,80.20
2018-12-17T21:50:56.454Z,80.13
2018-12-17T21:53:25.696Z,80.44
2018-12-17T21:55:54.846Z,80.06
2018-12-17T21:58:24.139Z,80.05
2018-12-17T22:00:53.286Z,80.09
2018-12-17T22:03:22.518Z,79.94
2018-12-17T22:05:51.767Z,80.04
2018-12-17T22:11:00.638Z,80.13
2018-12-17T22:13:29.967Z,80.29
2018-12-17T22:15:59.265Z,80.40
2018-12-17T22:18:28.599Z,80.20
2018-12-17T22:20:58.163Z,80.19
2018-12-17T22:23:27.461Z,80.27
2018-12-17T22:25:56.827Z,80.28
2018-12-17T22:28:26.002Z,80.27
2018-12-17T22:30:55.017Z,80.23
2018-12-17T22:33:24.207Z,80.20
2018-12-17T22:35:53.596Z,80.13
2018-12-17T22:38:22.768Z,80.22
2018-12-17T22:40:52.216Z,80.38
2018-12-17T22:43:21.315Z,80.36
2018-12-17T22:45:50.582Z,80.40
2018-12-17T22:48:19.794Z,80.21
2018-12-17T22:50:48.957Z,80.20
2018-12-17T22:53:18.202Z,80.39
2018-12-17T22:55:47.719Z,80.43
2018-12-17T22:58:16.772Z,80.14
2018-12-17T23:00:46.425Z,80.22
2018-12-17T23:03:15.809Z,80.54
2018-12-17T23:05:45.065Z,80.21
2018-12-17T23:08:14.284Z,79.75
2018-12-17T23:10:54.567Z,80.14
2018-12-17T23:13:35.585Z,80.05
2018-12-17T23:16:16.004Z,80.07
2018-12-17T23:18:43.755Z,80.04
2018-12-17T23:21:13.412Z,80.18
2018-12-17T23:23:42.705Z,80.01
2018-12-17T23:26:11.927Z,80.20
2018-12-17T23:28:41.071Z,79.83
2018-12-17T23:31:10.569Z,80.37
2018-12-17T23:33:39.512Z,80.25
2018-12-17T23:36:09.285Z,80.27
2018-12-17T23:38:38.763Z,80.22
2018-12-17T23:41:07.838Z,80.41
2018-12-17T23:43:37.066Z,80.23
2018-12-17T23:46:06.375Z,80.08
2018-12-17T23:48:35.599Z,80.31
2018-12-17T23:51:05.714Z,80.08
2018-12-17T23:53:35.007Z,80.15
2018-12-17T23:56:05.160Z,79.97
2018-12-17T23:58:34.380Z,80.23
